Harrisburg-Raleigh Airport


Codes: KHSB/HSB
Name: Harrisburg-Raleigh Airport
City: Harrisburg
Country: United States
Elevation: 398 ft.

Photos at Harrisburg-Raleigh Airport


   Photos courtesy of SpottingLog. You can add your own sightings and photos by signing up for a free trial today.



No photos found.

Weather at Harrisburg-Raleigh Airport


Time (UTC)DescriptionTempratureWindCloud coverageVisibilityPressureHumidity
21-Feb-2024 03:00Clear Sky9°C7 mph, S0%10000m1023hPa49%
21-Feb-2024 06:00Clear Sky9°C7 mph, S5%10000m1023hPa58%
21-Feb-2024 09:00Scattered Clouds7°C7 mph, S36%10000m1022hPa69%
21-Feb-2024 12:00Scattered Clouds6°C7 mph, S45%10000m1021hPa87%
21-Feb-2024 15:00Overcast Clouds10°C11 mph, S100%10000m1021hPa77%
21-Feb-2024 18:00Overcast Clouds16°C16 mph, S100%10000m1017hPa62%
21-Feb-2024 21:00Overcast Clouds17°C16 mph, S100%10000m1014hPa67%
22-Feb-2024 00:00Overcast Clouds15°C13 mph, S100%10000m1012hPa79%
22-Feb-2024 03:00Overcast Clouds15°C18 mph, S100%10000m1011hPa79%
22-Feb-2024 06:00Overcast Clouds15°C18 mph, SW100%10000m1009hPa79%
22-Feb-2024 09:00Overcast Clouds14°C18 mph, S100%10000m1007hPa85%
22-Feb-2024 12:00Light Rain14°C18 mph, SW100%8546m1006hPa92%
22-Feb-2024 15:00Light Rain14°C16 mph, SW100%10000m1005hPa91%
22-Feb-2024 18:00Light Rain15°C16 mph, SW100%10000m1003hPa88%
22-Feb-2024 21:00Light Rain14°C11 mph, NW100%10000m1003hPa93%
23-Feb-2024 00:00Broken Clouds11°C11 mph, N81%10000m1006hPa82%
23-Feb-2024 03:00Clear Sky9°C7 mph, NW7%10000m1007hPa89%
23-Feb-2024 06:00Few Clouds8°C7 mph, NW24%10000m1007hPa89%
23-Feb-2024 09:00Clear Sky7°C9 mph, NW4%10000m1008hPa85%
23-Feb-2024 12:00Clear Sky6°C11 mph, NW2%10000m1010hPa87%
23-Feb-2024 15:00Clear Sky8°C11 mph, NW0%10000m1011hPa72%
23-Feb-2024 18:00Clear Sky11°C11 mph, NW1%10000m1011hPa51%
23-Feb-2024 21:00Clear Sky12°C13 mph, NW6%10000m1010hPa46%
24-Feb-2024 00:00Clear Sky9°C7 mph, NW6%10000m1010hPa63%
24-Feb-2024 03:00Clear Sky7°C4 mph, W6%10000m1011hPa66%
24-Feb-2024 06:00Scattered Clouds6°C4 mph, W25%10000m1011hPa73%
24-Feb-2024 09:00Overcast Clouds5°C4 mph, N93%10000m1011hPa80%
24-Feb-2024 12:00Broken Clouds5°C7 mph, N74%10000m1014hPa90%
24-Feb-2024 15:00Scattered Clouds5°C13 mph, N38%10000m1018hPa80%
24-Feb-2024 18:00Broken Clouds5°C9 mph, N68%10000m1020hPa71%
24-Feb-2024 21:00Broken Clouds8°C4 mph, W74%10000m1019hPa57%
25-Feb-2024 00:00Scattered Clouds5°C4 mph, S38%10000m1019hPa70%
25-Feb-2024 03:00Clear Sky4°C7 mph, S2%10000m1019hPa78%
25-Feb-2024 06:00Clear Sky4°C9 mph, S1%10000m1018hPa81%
25-Feb-2024 09:00Clear Sky4°C11 mph, S0%10000m1016hPa81%
25-Feb-2024 12:00Clear Sky6°C13 mph, S0%10000m1015hPa78%
25-Feb-2024 15:00Broken Clouds10°C18 mph, SW78%10000m1014hPa67%
25-Feb-2024 18:00Broken Clouds15°C20 mph, SW78%10000m1012hPa60%
25-Feb-2024 21:00Light Rain17°C18 mph, SW63%10000m1010hPa60%
26-Feb-2024 00:00Light Rain14°C13 mph, SW82%10000m1012hPa71%